Terminal Aerodrome Forecast
Issued by NWS

Home | Current Version | Previous Version | Text Only | Print | Product List | Glossary On
Versions: 1 2 3 4 5 6 7 8 9 10 11 12 13 14 15
000
FTUS45 KRIW 191000 AAA
TAFCPR
TAF AMD
KCPR 191018Z 1910/2006 VRB10KT P6SM VCTS SCT070CB OVC100
      TEMPO 1910/1913 VRB15G25KT -TSRA BKN050CB
     FM191400 28008KT P6SM VCSH BKN080
     FM191800 29011KT P6SM SCT080 BKN120
     FM200000 01011KT P6SM SCT110=

USA.gov is the U.S. government's official web portal to all federal, state and local government web resources and services.